sensor_id;sensor_type;location;lat;lon;timestamp;temperature;humidity
18781;DHT22;9519;51.890;8.970;2023-02-01T00:02:33;5.50;99.90
18781;DHT22;9519;51.890;8.970;2023-02-01T00:07:37;5.20;99.90
18781;DHT22;9519;51.890;8.970;2023-02-01T00:12:39;5.80;99.90
18781;DHT22;9519;51.890;8.970;2023-02-01T00:17:42;5.30;99.90
18781;DHT22;9519;51.890;8.970;2023-02-01T00:22:44;5.30;99.90
18781;DHT22;9519;51.890;8.970;2023-02-01T00:27:48;5.40;99.90
18781;DHT22;9519;51.890;8.970;2023-02-01T00:32:52;5.40;99.90
18781;DHT22;9519;51.890;8.970;2023-02-01T00:37:54;5.50;99.90
18781;DHT22;9519;51.890;8.970;2023-02-01T00:42:58;5.50;99.90
18781;DHT22;9519;51.890;8.970;2023-02-01T00:48:02;5.80;99.90
18781;DHT22;9519;51.890;8.970;2023-02-01T00:53:04;5.20;99.90
18781;DHT22;9519;51.890;8.970;2023-02-01T00:58:06;5.10;99.90
18781;DHT22;9519;51.890;8.970;2023-02-01T01:03:11;5.30;99.90
18781;DHT22;9519;51.890;8.970;2023-02-01T01:08:18;5.20;99.90
18781;DHT22;9519;51.890;8.970;2023-02-01T01:13:21;5.30;99.90
18781;DHT22;9519;51.890;8.970;2023-02-01T01:18:24;5.20;99.90
18781;DHT22;9519;51.890;8.970;2023-02-01T01:23:26;5.30;99.90
18781;DHT22;9519;51.890;8.970;2023-02-01T01:28:29;5.60;99.90
18781;DHT22;9519;51.890;8.970;2023-02-01T01:33:32;5.20;99.90
18781;DHT22;9519;51.890;8.970;2023-02-01T01:38:35;5.30;99.90
18781;DHT22;9519;51.890;8.970;2023-02-01T01:43:49;5.50;99.90
18781;DHT22;9519;51.890;8.970;2023-02-01T01:49:09;5.30;99.90
18781;DHT22;9519;51.890;8.970;2023-02-01T01:54:18;5.50;99.90
18781;DHT22;9519;51.890;8.970;2023-02-01T01:59:25;5.40;99.90
18781;DHT22;9519;51.890;8.970;2023-02-01T02:04:29;5.40;99.90
18781;DHT22;9519;51.890;8.970;2023-02-01T02:09:33;5.60;99.90
18781;DHT22;9519;51.890;8.970;2023-02-01T02:14:36;5.30;99.90
18781;DHT22;9519;51.890;8.970;2023-02-01T02:20:35;5.60;99.90
18781;DHT22;9519;51.890;8.970;2023-02-01T02:26:35;5.70;99.90
18781;DHT22;9519;51.890;8.970;2023-02-01T02:32:51;5.50;99.90
18781;DHT22;9519;51.890;8.970;2023-02-01T02:38:17;5.70;99.90
18781;DHT22;9519;51.890;8.970;2023-02-01T02:43:37;5.50;99.90
18781;DHT22;9519;51.890;8.970;2023-02-01T02:49:08;5.40;99.90
18781;DHT22;9519;51.890;8.970;2023-02-01T02:54:18;5.50;99.90
18781;DHT22;9519;51.890;8.970;2023-02-01T02:59:44;5.60;99.90
18781;DHT22;9519;51.890;8.970;2023-02-01T03:05:06;5.80;99.90
18781;DHT22;9519;51.890;8.970;2023-02-01T03:10:18;5.60;99.90
18781;DHT22;9519;51.890;8.970;2023-02-01T03:15:33;5.50;99.90
18781;DHT22;9519;51.890;8.970;2023-02-01T03:20:40;5.70;99.90
18781;DHT22;9519;51.890;8.970;2023-02-01T03:25:49;5.80;99.90
18781;DHT22;9519;51.890;8.970;2023-02-01T03:30:53;5.50;99.90
18781;DHT22;9519;51.890;8.970;2023-02-01T03:36:01;5.80;99.90
18781;DHT22;9519;51.890;8.970;2023-02-01T03:41:17;5.60;99.90
18781;DHT22;9519;51.890;8.970;2023-02-01T03:46:27;5.90;99.90
18781;DHT22;9519;51.890;8.970;2023-02-01T03:51:35;6.10;99.90
18781;DHT22;9519;51.890;8.970;2023-02-01T03:56:44;5.60;99.90
18781;DHT22;9519;51.890;8.970;2023-02-01T04:01:48;5.70;99.90
18781;DHT22;9519;51.890;8.970;2023-02-01T04:06:51;5.70;99.90
18781;DHT22;9519;51.890;8.970;2023-02-01T04:11:54;5.70;99.90
18781;DHT22;9519;51.890;8.970;2023-02-01T04:16:59;6.10;99.90
18781;DHT22;9519;51.890;8.970;2023-02-01T04:22:01;5.60;99.90
18781;DHT22;9519;51.890;8.970;2023-02-01T04:27:04;5.70;99.90
18781;DHT22;9519;51.890;8.970;2023-02-01T04:32:06;5.90;99.90
18781;DHT22;9519;51.890;8.970;2023-02-01T04:37:10;5.70;99.90
18781;DHT22;9519;51.890;8.970;2023-02-01T04:42:13;6.20;99.90
18781;DHT22;9519;51.890;8.970;2023-02-01T04:47:16;6.30;99.90
18781;DHT22;9519;51.890;8.970;2023-02-01T04:52:18;5.80;99.90
18781;DHT22;9519;51.890;8.970;2023-02-01T04:57:21;5.80;99.90
18781;DHT22;9519;51.890;8.970;2023-02-01T05:02:23;6.00;99.90
18781;DHT22;9519;51.890;8.970;2023-02-01T05:07:25;5.90;99.90
18781;DHT22;9519;51.890;8.970;2023-02-01T05:12:29;5.80;99.90
18781;DHT22;9519;51.890;8.970;2023-02-01T05:17:49;5.70;99.90
18781;DHT22;9519;51.890;8.970;2023-02-01T05:27:54;5.60;99.90
18781;DHT22;9519;51.890;8.970;2023-02-01T05:32:56;5.30;99.90
18781;DHT22;9519;51.890;8.970;2023-02-01T05:37:58;5.40;99.90
18781;DHT22;9519;51.890;8.970;2023-02-01T05:43:02;5.30;99.90
18781;DHT22;9519;51.890;8.970;2023-02-01T05:48:04;5.20;99.90
18781;DHT22;9519;51.890;8.970;2023-02-01T05:53:06;5.20;99.90
18781;DHT22;9519;51.890;8.970;2023-02-01T05:58:10;5.20;99.90
18781;DHT22;9519;51.890;8.970;2023-02-01T06:03:12;5.00;99.90
18781;DHT22;9519;51.890;8.970;2023-02-01T06:08:15;5.20;99.90
18781;DHT22;9519;51.890;8.970;2023-02-01T06:13:19;5.30;99.90
18781;DHT22;9519;51.890;8.970;2023-02-01T06:18:21;5.30;99.90
18781;DHT22;9519;51.890;8.970;2023-02-01T06:23:23;5.50;99.90
18781;DHT22;9519;51.890;8.970;2023-02-01T06:28:29;5.10;99.90
18781;DHT22;9519;51.890;8.970;2023-02-01T06:33:32;5.60;99.90
18781;DHT22;9519;51.890;8.970;2023-02-01T06:38:35;5.40;99.90
18781;DHT22;9519;51.890;8.970;2023-02-01T06:43:38;5.40;99.90
18781;DHT22;9519;51.890;8.970;2023-02-01T06:48:41;5.40;99.90
18781;DHT22;9519;51.890;8.970;2023-02-01T06:53:43;5.50;99.90
18781;DHT22;9519;51.890;8.970;2023-02-01T06:58:47;5.80;99.90
18781;DHT22;9519;51.890;8.970;2023-02-01T07:03:50;5.50;99.90
18781;DHT22;9519;51.890;8.970;2023-02-01T07:08:52;5.70;99.90
18781;DHT22;9519;51.890;8.970;2023-02-01T07:13:57;5.60;99.90
18781;DHT22;9519;51.890;8.970;2023-02-01T07:18:59;5.60;99.90
18781;DHT22;9519;51.890;8.970;2023-02-01T07:30:19;5.60;99.90
18781;DHT22;9519;51.890;8.970;2023-02-01T07:35:21;5.70;99.90
18781;DHT22;9519;51.890;8.970;2023-02-01T07:40:24;6.00;99.90
18781;DHT22;9519;51.890;8.970;2023-02-01T07:45:30;5.90;99.90
18781;DHT22;9519;51.890;8.970;2023-02-01T07:50:32;5.60;99.90
18781;DHT22;9519;51.890;8.970;2023-02-01T07:55:37;5.70;99.90
18781;DHT22;9519;51.890;8.970;2023-02-01T08:00:41;5.70;99.90
18781;DHT22;9519;51.890;8.970;2023-02-01T08:06:00;5.60;99.90
18781;DHT22;9519;51.890;8.970;2023-02-01T08:11:04;5.80;99.90
18781;DHT22;9519;51.890;8.970;2023-02-01T08:16:10;6.10;99.90
18781;DHT22;9519;51.890;8.970;2023-02-01T08:21:15;5.90;99.90
18781;DHT22;9519;51.890;8.970;2023-02-01T08:26:19;6.10;99.90
18781;DHT22;9519;51.890;8.970;2023-02-01T08:31:25;5.80;99.90
18781;DHT22;9519;51.890;8.970;2023-02-01T08:36:30;5.80;99.90
18781;DHT22;9519;51.890;8.970;2023-02-01T08:41:32;5.80;99.90
18781;DHT22;9519;51.890;8.970;2023-02-01T08:46:36;5.80;99.90
18781;DHT22;9519;51.890;8.970;2023-02-01T08:51:38;6.10;99.90
18781;DHT22;9519;51.890;8.970;2023-02-01T08:56:40;5.90;99.90
18781;DHT22;9519;51.890;8.970;2023-02-01T09:01:43;6.00;99.90
18781;DHT22;9519;51.890;8.970;2023-02-01T09:06:45;6.00;99.90
18781;DHT22;9519;51.890;8.970;2023-02-01T09:11:47;6.40;99.90
18781;DHT22;9519;51.890;8.970;2023-02-01T09:16:52;6.00;99.90
18781;DHT22;9519;51.890;8.970;2023-02-01T09:21:54;6.10;99.90
18781;DHT22;9519;51.890;8.970;2023-02-01T09:26:56;6.10;99.90
18781;DHT22;9519;51.890;8.970;2023-02-01T09:31:59;6.10;99.90
18781;DHT22;9519;51.890;8.970;2023-02-01T09:37:02;6.20;99.90
18781;DHT22;9519;51.890;8.970;2023-02-01T09:42:14;6.20;99.90
18781;DHT22;9519;51.890;8.970;2023-02-01T09:47:35;6.20;99.90
18781;DHT22;9519;51.890;8.970;2023-02-01T09:52:50;6.40;99.90
18781;DHT22;9519;51.890;8.970;2023-02-01T09:57:59;6.20;99.90
18781;DHT22;9519;51.890;8.970;2023-02-01T10:03:11;6.30;99.90
18781;DHT22;9519;51.890;8.970;2023-02-01T10:08:20;6.30;99.90
18781;DHT22;9519;51.890;8.970;2023-02-01T10:13:43;6.30;99.90
18781;DHT22;9519;51.890;8.970;2023-02-01T10:24:41;6.30;99.90
18781;DHT22;9519;51.890;8.970;2023-02-01T10:29:49;6.60;99.90
18781;DHT22;9519;51.890;8.970;2023-02-01T10:34:58;6.30;99.90
18781;DHT22;9519;51.890;8.970;2023-02-01T10:40:12;6.30;99.90
18781;DHT22;9519;51.890;8.970;2023-02-01T10:45:20;6.30;99.90
18781;DHT22;9519;51.890;8.970;2023-02-01T10:50:37;6.40;99.90
18781;DHT22;9519;51.890;8.970;2023-02-01T10:55:47;6.40;99.90
18781;DHT22;9519;51.890;8.970;2023-02-01T11:00:54;6.50;99.90
18781;DHT22;9519;51.890;8.970;2023-02-01T11:06:00;6.50;99.90
18781;DHT22;9519;51.890;8.970;2023-02-01T11:11:04;6.40;99.90
18781;DHT22;9519;51.890;8.970;2023-02-01T11:16:13;6.70;99.90
18781;DHT22;9519;51.890;8.970;2023-02-01T11:21:17;6.40;99.90
18781;DHT22;9519;51.890;8.970;2023-02-01T11:26:24;6.50;99.90
18781;DHT22;9519;51.890;8.970;2023-02-01T11:31:28;6.50;99.90
18781;DHT22;9519;51.890;8.970;2023-02-01T11:36:33;6.50;99.90
18781;DHT22;9519;51.890;8.970;2023-02-01T11:41:42;6.50;99.90
18781;DHT22;9519;51.890;8.970;2023-02-01T11:46:45;6.50;99.90
18781;DHT22;9519;51.890;8.970;2023-02-01T11:51:55;6.50;99.90
18781;DHT22;9519;51.890;8.970;2023-02-01T11:57:22;6.50;99.90
18781;DHT22;9519;51.890;8.970;2023-02-01T12:03:08;6.50;99.90
18781;DHT22;9519;51.890;8.970;2023-02-01T12:14:36;6.50;99.90
18781;DHT22;9519;51.890;8.970;2023-02-01T12:20:00;6.50;99.90
18781;DHT22;9519;51.890;8.970;2023-02-01T12:25:22;6.50;99.90
18781;DHT22;9519;51.890;8.970;2023-02-01T12:36:15;6.30;99.90
18781;DHT22;9519;51.890;8.970;2023-02-01T12:41:31;6.30;99.90
18781;DHT22;9519;51.890;8.970;2023-02-01T12:46:49;6.20;99.90
18781;DHT22;9519;51.890;8.970;2023-02-01T12:52:00;6.10;99.90
18781;DHT22;9519;51.890;8.970;2023-02-01T12:57:09;6.10;99.90
18781;DHT22;9519;51.890;8.970;2023-02-01T13:02:19;6.10;99.90
18781;DHT22;9519;51.890;8.970;2023-02-01T13:07:33;5.70;99.90
18781;DHT22;9519;51.890;8.970;2023-02-01T13:12:47;6.10;99.90
18781;DHT22;9519;51.890;8.970;2023-02-01T13:17:56;5.70;99.90
18781;DHT22;9519;51.890;8.970;2023-02-01T13:23:07;5.70;99.90
18781;DHT22;9519;51.890;8.970;2023-02-01T13:28:16;5.80;99.90
18781;DHT22;9519;51.890;8.970;2023-02-01T13:33:36;5.70;99.90
18781;DHT22;9519;51.890;8.970;2023-02-01T13:44:51;5.70;99.90
18781;DHT22;9519;51.890;8.970;2023-02-01T13:49:59;5.70;99.90
18781;DHT22;9519;51.890;8.970;2023-02-01T13:55:31;6.10;99.90
18781;DHT22;9519;51.890;8.970;2023-02-01T14:00:37;5.80;99.90
18781;DHT22;9519;51.890;8.970;2023-02-01T14:06:18;5.90;99.90
18781;DHT22;9519;51.890;8.970;2023-02-01T14:11:41;5.90;99.90
18781;DHT22;9519;51.890;8.970;2023-02-01T14:22:41;6.00;99.90
18781;DHT22;9519;51.890;8.970;2023-02-01T14:27:45;6.50;99.90
18781;DHT22;9519;51.890;8.970;2023-02-01T14:32:49;6.10;99.90
18781;DHT22;9519;51.890;8.970;2023-02-01T14:37:54;6.20;99.90
18781;DHT22;9519;51.890;8.970;2023-02-01T14:43:03;6.00;99.90
18781;DHT22;9519;51.890;8.970;2023-02-01T14:48:43;5.80;99.90
18781;DHT22;9519;51.890;8.970;2023-02-01T14:53:47;5.70;99.90
18781;DHT22;9519;51.890;8.970;2023-02-01T14:58:55;5.60;99.90
18781;DHT22;9519;51.890;8.970;2023-02-01T15:04:05;5.30;99.90
18781;DHT22;9519;51.890;8.970;2023-02-01T15:09:12;5.30;99.90
18781;DHT22;9519;51.890;8.970;2023-02-01T15:14:18;5.20;99.90
18781;DHT22;9519;51.890;8.970;2023-02-01T15:19:22;5.40;99.90
18781;DHT22;9519;51.890;8.970;2023-02-01T15:24:27;5.90;99.90
18781;DHT22;9519;51.890;8.970;2023-02-01T15:29:31;5.40;99.90
18781;DHT22;9519;51.890;8.970;2023-02-01T15:34:46;5.30;99.90
18781;DHT22;9519;51.890;8.970;2023-02-01T15:40:04;5.10;99.90
18781;DHT22;9519;51.890;8.970;2023-02-01T15:45:22;5.30;99.90
18781;DHT22;9519;51.890;8.970;2023-02-01T15:50:30;5.40;99.90
18781;DHT22;9519;51.890;8.970;2023-02-01T15:55:36;5.60;99.90
18781;DHT22;9519;51.890;8.970;2023-02-01T16:00:43;5.50;99.90
18781;DHT22;9519;51.890;8.970;2023-02-01T16:05:57;5.70;99.90
18781;DHT22;9519;51.890;8.970;2023-02-01T16:11:14;5.70;99.90
18781;DHT22;9519;51.890;8.970;2023-02-01T16:16:23;5.70;99.90
18781;DHT22;9519;51.890;8.970;2023-02-01T16:21:26;5.60;99.90
18781;DHT22;9519;51.890;8.970;2023-02-01T16:26:28;5.70;99.90
18781;DHT22;9519;51.890;8.970;2023-02-01T16:31:35;5.90;99.90
18781;DHT22;9519;51.890;8.970;2023-02-01T16:36:40;6.10;99.90
18781;DHT22;9519;51.890;8.970;2023-02-01T16:41:42;5.80;99.90
18781;DHT22;9519;51.890;8.970;2023-02-01T16:46:47;5.80;99.90
18781;DHT22;9519;51.890;8.970;2023-02-01T16:51:55;5.80;99.90
18781;DHT22;9519;51.890;8.970;2023-02-01T16:56:59;5.60;99.90
18781;DHT22;9519;51.890;8.970;2023-02-01T17:02:01;5.80;99.90
18781;DHT22;9519;51.890;8.970;2023-02-01T17:07:06;6.10;99.90
18781;DHT22;9519;51.890;8.970;2023-02-01T17:12:16;6.40;99.90
18781;DHT22;9519;51.890;8.970;2023-02-01T17:17:24;5.90;99.90
18781;DHT22;9519;51.890;8.970;2023-02-01T17:22:33;5.90;99.90
18781;DHT22;9519;51.890;8.970;2023-02-01T17:27:35;5.90;99.90
18781;DHT22;9519;51.890;8.970;2023-02-01T17:32:38;6.00;99.90
18781;DHT22;9519;51.890;8.970;2023-02-01T17:37:42;6.20;99.90
18781;DHT22;9519;51.890;8.970;2023-02-01T17:42:44;6.00;99.90
18781;DHT22;9519;51.890;8.970;2023-02-01T17:47:46;6.20;99.90
18781;DHT22;9519;51.890;8.970;2023-02-01T17:52:50;5.70;99.90
18781;DHT22;9519;51.890;8.970;2023-02-01T17:57:52;6.10;99.90
18781;DHT22;9519;51.890;8.970;2023-02-01T18:02:54;6.00;99.90
18781;DHT22;9519;51.890;8.970;2023-02-01T18:07:58;5.70;99.90
18781;DHT22;9519;51.890;8.970;2023-02-01T18:13:00;5.90;99.90
18781;DHT22;9519;51.890;8.970;2023-02-01T18:18:03;5.80;99.90
18781;DHT22;9519;51.890;8.970;2023-02-01T18:23:12;5.80;99.90
18781;DHT22;9519;51.890;8.970;2023-02-01T18:28:18;5.90;99.90
18781;DHT22;9519;51.890;8.970;2023-02-01T18:33:21;5.70;99.90
18781;DHT22;9519;51.890;8.970;2023-02-01T18:38:25;5.80;99.90
18781;DHT22;9519;51.890;8.970;2023-02-01T18:43:27;5.80;99.90
18781;DHT22;9519;51.890;8.970;2023-02-01T18:48:29;6.00;99.90
18781;DHT22;9519;51.890;8.970;2023-02-01T18:53:33;5.60;99.90
18781;DHT22;9519;51.890;8.970;2023-02-01T18:58:35;5.50;99.90
18781;DHT22;9519;51.890;8.970;2023-02-01T19:03:37;5.70;99.90
18781;DHT22;9519;51.890;8.970;2023-02-01T19:08:44;5.80;99.90
18781;DHT22;9519;51.890;8.970;2023-02-01T19:13:49;5.80;99.90
18781;DHT22;9519;51.890;8.970;2023-02-01T19:18:51;5.80;99.90
18781;DHT22;9519;51.890;8.970;2023-02-01T19:23:54;5.80;99.90
18781;DHT22;9519;51.890;8.970;2023-02-01T19:28:57;5.80;99.90
18781;DHT22;9519;51.890;8.970;2023-02-01T19:34:01;5.90;99.90
18781;DHT22;9519;51.890;8.970;2023-02-01T19:39:05;5.80;99.90
18781;DHT22;9519;51.890;8.970;2023-02-01T19:44:07;5.70;99.90
18781;DHT22;9519;51.890;8.970;2023-02-01T19:49:09;5.70;99.90
18781;DHT22;9519;51.890;8.970;2023-02-01T19:54:14;5.70;99.90
18781;DHT22;9519;51.890;8.970;2023-02-01T19:59:16;5.70;99.90
18781;DHT22;9519;51.890;8.970;2023-02-01T20:04:19;5.60;99.90
18781;DHT22;9519;51.890;8.970;2023-02-01T20:09:24;5.90;99.90
18781;DHT22;9519;51.890;8.970;2023-02-01T20:14:30;5.70;99.90
18781;DHT22;9519;51.890;8.970;2023-02-01T20:19:32;5.70;99.90
18781;DHT22;9519;51.890;8.970;2023-02-01T20:24:36;6.10;99.90
18781;DHT22;9519;51.890;8.970;2023-02-01T20:29:39;5.70;99.90
18781;DHT22;9519;51.890;8.970;2023-02-01T20:34:42;5.80;99.90
18781;DHT22;9519;51.890;8.970;2023-02-01T20:39:45;6.00;99.90
18781;DHT22;9519;51.890;8.970;2023-02-01T20:44:47;5.60;99.90
18781;DHT22;9519;51.890;8.970;2023-02-01T20:49:49;5.70;99.90
18781;DHT22;9519;51.890;8.970;2023-02-01T20:54:52;5.70;99.90
18781;DHT22;9519;51.890;8.970;2023-02-01T20:59:54;5.70;99.90
18781;DHT22;9519;51.890;8.970;2023-02-01T21:04:57;5.50;99.90
18781;DHT22;9519;51.890;8.970;2023-02-01T21:10:00;5.40;99.90
18781;DHT22;9519;51.890;8.970;2023-02-01T21:15:03;6.00;99.90
18781;DHT22;9519;51.890;8.970;2023-02-01T21:20:06;5.70;99.90
18781;DHT22;9519;51.890;8.970;2023-02-01T21:25:10;6.10;99.90
18781;DHT22;9519;51.890;8.970;2023-02-01T21:30:13;5.60;99.90
18781;DHT22;9519;51.890;8.970;2023-02-01T21:35:16;5.80;99.90
18781;DHT22;9519;51.890;8.970;2023-02-01T21:40:19;5.70;99.90
18781;DHT22;9519;51.890;8.970;2023-02-01T21:45:21;5.60;99.90
18781;DHT22;9519;51.890;8.970;2023-02-01T21:50:23;5.40;99.90
18781;DHT22;9519;51.890;8.970;2023-02-01T21:55:27;5.60;99.90
18781;DHT22;9519;51.890;8.970;2023-02-01T22:00:29;5.40;99.90
18781;DHT22;9519;51.890;8.970;2023-02-01T22:05:31;5.60;99.90
18781;DHT22;9519;51.890;8.970;2023-02-01T22:10:34;5.60;99.90
18781;DHT22;9519;51.890;8.970;2023-02-01T22:15:38;6.10;99.90
18781;DHT22;9519;51.890;8.970;2023-02-01T22:20:40;6.20;99.90
18781;DHT22;9519;51.890;8.970;2023-02-01T22:25:43;5.80;99.90
18781;DHT22;9519;51.890;8.970;2023-02-01T22:30:45;5.80;99.90
18781;DHT22;9519;51.890;8.970;2023-02-01T22:35:48;5.50;99.90
18781;DHT22;9519;51.890;8.970;2023-02-01T22:40:54;5.90;99.90
18781;DHT22;9519;51.890;8.970;2023-02-01T22:45:58;5.80;99.90
18781;DHT22;9519;51.890;8.970;2023-02-01T22:51:02;6.20;99.90
18781;DHT22;9519;51.890;8.970;2023-02-01T22:56:06;5.80;99.90
18781;DHT22;9519;51.890;8.970;2023-02-01T23:01:12;6.20;99.90
18781;DHT22;9519;51.890;8.970;2023-02-01T23:06:15;6.10;99.90
18781;DHT22;9519;51.890;8.970;2023-02-01T23:11:21;6.40;99.90
18781;DHT22;9519;51.890;8.970;2023-02-01T23:16:23;5.90;99.90
18781;DHT22;9519;51.890;8.970;2023-02-01T23:21:26;6.30;99.90
18781;DHT22;9519;51.890;8.970;2023-02-01T23:26:30;6.10;99.90
18781;DHT22;9519;51.890;8.970;2023-02-01T23:31:33;6.00;99.90
18781;DHT22;9519;51.890;8.970;2023-02-01T23:36:35;5.70;99.90
18781;DHT22;9519;51.890;8.970;2023-02-01T23:41:39;5.90;99.90
18781;DHT22;9519;51.890;8.970;2023-02-01T23:46:41;5.60;99.90
18781;DHT22;9519;51.890;8.970;2023-02-01T23:51:47;5.80;99.90
18781;DHT22;9519;51.890;8.970;2023-02-01T23:56:53;5.80;99.90
